createdAt,value
2022-08-12T00:00:39.240Z,2.50
2022-08-12T00:02:03.889Z,2.20
2022-08-12T00:02:39.585Z,2.20
2022-08-12T00:03:39.316Z,2.30
2022-08-12T00:04:39.207Z,2.10
2022-08-12T00:05:39.213Z,2.40
2022-08-12T00:06:39.192Z,1.90
2022-08-12T00:07:39.168Z,2.30
2022-08-12T00:08:39.163Z,2.20
2022-08-12T00:09:39.130Z,2.30
2022-08-12T00:10:39.109Z,2.30
2022-08-12T00:11:39.127Z,2.40
2022-08-12T00:12:39.206Z,2.50
2022-08-12T00:13:39.097Z,2.30
2022-08-12T00:14:39.069Z,2.50
2022-08-12T00:15:39.039Z,2.20
2022-08-12T00:16:39.081Z,2.20
2022-08-12T00:17:39.036Z,2.10
2022-08-12T00:18:39.005Z,2.30
2022-08-12T00:19:38.983Z,2.40
2022-08-12T00:20:38.973Z,3.10
2022-08-12T00:21:38.989Z,2.30
2022-08-12T00:22:39.401Z,2.50
2022-08-12T00:23:38.944Z,2.40
2022-08-12T00:24:38.924Z,2.50
2022-08-12T00:26:00.456Z,2.30
2022-08-12T00:26:38.943Z,2.50
2022-08-12T00:27:44.008Z,2.30
2022-08-12T00:28:38.915Z,2.20
2022-08-12T00:29:38.853Z,2.30
2022-08-12T00:30:38.842Z,2.70
2022-08-12T00:31:38.829Z,2.50
2022-08-12T00:32:38.819Z,2.20
2022-08-12T00:33:52.471Z,2.20
2022-08-12T00:34:38.801Z,2.40
2022-08-12T00:35:38.793Z,2.40
2022-08-12T00:36:38.764Z,2.60
2022-08-12T00:37:38.743Z,2.20
2022-08-12T00:38:38.755Z,2.30
2022-08-12T00:39:39.703Z,2.20
2022-08-12T00:40:38.701Z,2.50
2022-08-12T00:41:38.698Z,2.50
2022-08-12T00:42:38.928Z,2.20
2022-08-12T00:43:38.680Z,2.10
2022-08-12T00:44:38.687Z,2.60
2022-08-12T00:45:38.648Z,2.20
2022-08-12T00:46:38.634Z,2.10
2022-08-12T00:47:38.614Z,2.10
2022-08-12T00:48:38.621Z,2.30
2022-08-12T00:49:38.624Z,2.00
2022-08-12T00:50:38.585Z,2.30
2022-08-12T00:51:38.585Z,2.20
2022-08-12T00:52:38.810Z,2.20
2022-08-12T00:53:38.538Z,2.30
2022-08-12T00:54:38.518Z,2.20
2022-08-12T00:55:38.519Z,2.40
2022-08-12T00:56:38.486Z,2.50
2022-08-12T00:57:38.486Z,2.10
2022-08-12T00:58:38.463Z,2.10
2022-08-12T00:59:38.450Z,2.20
2022-08-12T01:00:38.423Z,2.20
2022-08-12T01:02:10.726Z,2.10
2022-08-12T01:02:38.616Z,2.30
2022-08-12T01:03:38.399Z,2.20
2022-08-12T01:04:38.376Z,2.10
2022-08-12T01:05:38.370Z,2.40
2022-08-12T01:06:38.374Z,2.10
2022-08-12T01:07:38.355Z,2.00
2022-08-12T01:08:38.357Z,2.60
2022-08-12T01:09:38.314Z,2.70
2022-08-12T01:10:38.309Z,2.30
2022-08-12T01:11:38.298Z,2.10
2022-08-12T01:12:38.495Z,2.30
2022-08-12T01:13:38.262Z,2.40
2022-08-12T01:14:38.258Z,2.10
2022-08-12T01:15:38.244Z,2.00
2022-08-12T01:16:38.250Z,2.20
2022-08-12T01:17:38.205Z,2.10
2022-08-12T01:18:38.198Z,2.70
2022-08-12T01:19:38.166Z,2.20
2022-08-12T01:20:38.170Z,2.10
2022-08-12T01:21:38.172Z,2.10
2022-08-12T01:22:38.303Z,2.30
2022-08-12T01:23:38.138Z,1.90
2022-08-12T01:24:38.111Z,2.20
2022-08-12T01:25:55.807Z,2.10
2022-08-12T01:26:38.115Z,2.30
2022-08-12T01:27:38.073Z,2.10
2022-08-12T01:28:38.070Z,2.00
2022-08-12T01:29:38.042Z,2.00
2022-08-12T01:30:38.025Z,2.10
2022-08-12T01:31:38.050Z,2.30
2022-08-12T01:32:38.141Z,2.00
2022-08-12T01:33:37.993Z,2.30
2022-08-12T01:34:38.016Z,2.00
2022-08-12T01:35:37.951Z,2.10
2022-08-12T01:36:37.954Z,2.30
2022-08-12T01:37:37.954Z,2.40
2022-08-12T01:38:37.928Z,2.40
2022-08-12T01:39:38.011Z,2.40
2022-08-12T01:40:44.986Z,2.00
2022-08-12T01:41:37.884Z,2.20
2022-08-12T01:42:37.954Z,2.00
2022-08-12T01:43:37.871Z,2.20
2022-08-12T01:44:37.859Z,2.30
2022-08-12T01:45:43.315Z,2.30
2022-08-12T01:46:37.824Z,2.20
2022-08-12T01:47:37.807Z,2.30
2022-08-12T01:48:37.810Z,1.90
2022-08-12T01:49:37.768Z,2.10
2022-08-12T01:50:37.802Z,2.20
2022-08-12T01:52:20.496Z,2.50
2022-08-12T01:52:37.762Z,2.10
2022-08-12T01:53:48.641Z,2.40
2022-08-12T01:54:37.714Z,2.20
2022-08-12T01:55:37.716Z,2.30
2022-08-12T01:56:37.680Z,2.10
2022-08-12T01:57:58.827Z,2.40
2022-08-12T01:58:37.680Z,2.30
2022-08-12T01:59:37.630Z,2.10
2022-08-12T02:00:46.083Z,2.20
2022-08-12T02:01:37.706Z,1.90
2022-08-12T02:02:37.637Z,2.10
2022-08-12T02:03:37.585Z,2.00
2022-08-12T02:04:37.577Z,2.40
2022-08-12T02:05:37.556Z,2.10
2022-08-12T02:06:37.563Z,2.10
2022-08-12T02:07:37.541Z,2.70
2022-08-12T02:08:37.546Z,1.80
2022-08-12T02:09:37.505Z,2.30
2022-08-12T02:10:49.958Z,2.00
2022-08-12T02:11:37.474Z,2.20
2022-08-12T02:12:37.456Z,2.20
2022-08-12T02:13:48.571Z,2.10
2022-08-12T02:14:37.451Z,2.00
2022-08-12T02:15:37.442Z,2.30
2022-08-12T02:16:37.422Z,2.10
2022-08-12T02:17:55.968Z,1.80
2022-08-12T02:18:37.387Z,2.30
2022-08-12T02:19:37.398Z,2.50
2022-08-12T02:20:52.068Z,2.30
2022-08-12T02:21:37.339Z,2.30
2022-08-12T02:22:37.327Z,2.20
2022-08-12T02:23:37.313Z,2.10
2022-08-12T02:24:37.335Z,2.20
2022-08-12T02:25:37.310Z,2.20
2022-08-12T02:26:37.275Z,2.20
2022-08-12T02:27:37.309Z,2.40
2022-08-12T02:28:37.253Z,2.40
2022-08-12T02:29:37.243Z,2.20
2022-08-12T02:30:42.016Z,2.40
2022-08-12T02:31:37.214Z,2.30
2022-08-12T02:32:37.198Z,2.20
2022-08-12T02:33:37.208Z,2.30
2022-08-12T02:34:37.152Z,2.20
2022-08-12T02:35:37.147Z,2.10
2022-08-12T02:36:37.130Z,2.40
2022-08-12T02:37:37.120Z,2.30
2022-08-12T02:38:37.108Z,2.40
2022-08-12T02:39:37.221Z,2.80
2022-08-12T02:40:37.082Z,2.40
2022-08-12T02:41:37.079Z,2.40
2022-08-12T02:42:37.086Z,2.50
2022-08-12T02:43:37.071Z,2.20
2022-08-12T02:44:37.063Z,2.10
2022-08-12T02:45:37.003Z,2.70
2022-08-12T02:46:37.024Z,2.10
2022-08-12T02:47:57.133Z,2.30
2022-08-12T02:48:36.980Z,2.10
2022-08-12T02:49:36.989Z,2.40
2022-08-12T02:50:36.989Z,2.00
2022-08-12T02:51:36.929Z,2.00
2022-08-12T02:52:36.926Z,2.40
2022-08-12T02:53:36.930Z,2.00
2022-08-12T02:54:36.890Z,2.00
2022-08-12T02:55:36.919Z,2.30
2022-08-12T02:56:36.868Z,2.30
2022-08-12T02:57:36.857Z,2.00
2022-08-12T02:58:41.314Z,2.40
2022-08-12T02:59:36.846Z,2.10
2022-08-12T03:00:36.811Z,2.00
2022-08-12T03:01:47.767Z,1.90
2022-08-12T03:02:36.804Z,1.90
2022-08-12T03:03:36.766Z,2.10
2022-08-12T03:04:41.464Z,2.00
2022-08-12T03:05:38.532Z,2.00
2022-08-12T03:06:36.787Z,2.10
2022-08-12T03:07:59.200Z,2.00
2022-08-12T03:08:36.746Z,1.90
2022-08-12T03:09:52.391Z,2.00
2022-08-12T03:10:37.574Z,1.80
2022-08-12T03:11:41.653Z,2.00
2022-08-12T03:12:36.689Z,2.10
2022-08-12T03:13:36.642Z,1.80
2022-08-12T03:14:36.649Z,1.90
2022-08-12T03:15:36.641Z,1.70
2022-08-12T03:16:36.605Z,1.90
2022-08-12T03:17:36.603Z,2.00
2022-08-12T03:18:36.580Z,1.80
2022-08-12T03:19:36.564Z,2.20
2022-08-12T03:20:36.585Z,1.80
2022-08-12T03:21:55.658Z,2.40
2022-08-12T03:22:36.527Z,1.80
2022-08-12T03:23:36.503Z,1.80
2022-08-12T03:24:36.506Z,1.80
2022-08-12T03:25:36.464Z,2.00
2022-08-12T03:26:36.509Z,2.10
2022-08-12T03:27:36.457Z,2.00
2022-08-12T03:28:36.447Z,1.90
2022-08-12T03:29:42.990Z,2.00
2022-08-12T03:30:36.420Z,2.30
2022-08-12T03:31:36.404Z,1.90
2022-08-12T03:32:36.771Z,2.10
2022-08-12T03:33:36.359Z,2.00
2022-08-12T03:34:36.348Z,2.30
2022-08-12T03:35:40.255Z,2.20
2022-08-12T03:36:36.876Z,1.90
2022-08-12T03:37:36.330Z,2.20
2022-08-12T03:38:36.305Z,1.80
2022-08-12T03:39:37.219Z,2.60
2022-08-12T03:40:36.311Z,1.90
2022-08-12T03:41:36.331Z,2.20
2022-08-12T03:42:36.267Z,1.80
2022-08-12T03:43:36.266Z,1.90
2022-08-12T03:44:36.308Z,1.80
2022-08-12T03:45:50.114Z,2.00
2022-08-12T03:46:36.203Z,1.80
2022-08-12T03:47:36.189Z,2.00
2022-08-12T03:48:36.171Z,2.20
2022-08-12T03:49:36.218Z,1.80
2022-08-12T03:50:36.144Z,1.90
2022-08-12T03:51:36.114Z,2.00
2022-08-12T03:52:36.112Z,2.20
2022-08-12T03:53:36.095Z,2.00
2022-08-12T03:54:39.365Z,2.10
2022-08-12T03:55:36.089Z,2.20
2022-08-12T03:56:36.073Z,2.10
2022-08-12T03:57:36.051Z,1.90
2022-08-12T03:58:36.044Z,2.00
2022-08-12T03:59:36.039Z,1.90
2022-08-12T04:00:36.079Z,2.00
2022-08-12T04:01:40.691Z,1.90
2022-08-12T04:02:36.003Z,2.50
2022-08-12T04:03:35.950Z,2.00
2022-08-12T04:04:35.960Z,2.60
2022-08-12T04:05:55.799Z,2.10
2022-08-12T04:06:36.093Z,2.30
2022-08-12T04:07:35.897Z,2.00
2022-08-12T04:08:35.899Z,2.10
2022-08-12T04:09:35.876Z,2.40
2022-08-12T04:10:35.902Z,1.90
2022-08-12T04:11:35.847Z,2.00
2022-08-12T04:12:35.841Z,1.90
2022-08-12T04:13:35.830Z,2.20
2022-08-12T04:14:35.833Z,1.90
2022-08-12T04:15:35.802Z,2.30
2022-08-12T04:16:35.806Z,1.80
2022-08-12T04:17:35.792Z,1.80
2022-08-12T04:18:35.757Z,2.20
2022-08-12T04:19:35.754Z,2.00
2022-08-12T04:20:35.729Z,2.20
2022-08-12T04:21:35.723Z,2.50
2022-08-12T04:22:35.769Z,2.10
2022-08-12T04:23:35.696Z,2.10
2022-08-12T04:24:36.050Z,2.10
2022-08-12T04:25:35.658Z,1.90
2022-08-12T04:26:35.641Z,1.90
2022-08-12T04:27:35.668Z,2.00
2022-08-12T04:28:35.603Z,2.20
2022-08-12T04:30:17.182Z,2.10
2022-08-12T04:30:37.993Z,2.20
2022-08-12T04:31:35.610Z,2.00
2022-08-12T04:32:37.698Z,1.90
2022-08-12T04:33:35.575Z,2.20
2022-08-12T04:34:35.554Z,2.20
2022-08-12T04:35:35.525Z,2.00
2022-08-12T04:36:35.501Z,1.90
2022-08-12T04:37:59.881Z,1.80
2022-08-12T04:38:35.516Z,1.80
2022-08-12T04:39:35.536Z,2.00
2022-08-12T04:40:35.459Z,1.90
2022-08-12T04:41:35.463Z,2.10
2022-08-12T04:42:35.479Z,2.00
2022-08-12T04:44:00.702Z,2.10
2022-08-12T04:44:35.420Z,2.30
2022-08-12T04:45:35.417Z,2.50
2022-08-12T04:46:35.377Z,2.20
2022-08-12T04:47:35.422Z,2.30
2022-08-12T04:48:35.371Z,2.50
2022-08-12T04:49:35.366Z,2.20
2022-08-12T04:50:36.856Z,2.10
2022-08-12T04:51:35.471Z,2.40
2022-08-12T04:52:35.829Z,2.40
2022-08-12T04:53:35.308Z,2.00
2022-08-12T04:54:35.300Z,2.90
2022-08-12T04:55:35.276Z,2.20
2022-08-12T04:56:35.837Z,2.50
2022-08-12T04:57:35.243Z,1.90
2022-08-12T04:58:35.212Z,2.20
2022-08-12T04:59:46.608Z,2.10
2022-08-12T05:00:35.209Z,2.10
2022-08-12T05:01:35.216Z,2.90
2022-08-12T05:02:35.292Z,2.10
2022-08-12T05:03:46.842Z,2.30
2022-08-12T05:04:35.152Z,2.10
2022-08-12T05:05:36.238Z,2.00
2022-08-12T05:06:35.110Z,2.00
2022-08-12T05:07:35.111Z,1.90
2022-08-12T05:08:35.091Z,2.90
2022-08-12T05:10:01.030Z,2.30
2022-08-12T05:10:35.807Z,2.30
2022-08-12T05:11:35.053Z,2.30
2022-08-12T05:12:35.135Z,2.30
2022-08-12T05:13:35.053Z,2.40
2022-08-12T05:14:37.611Z,2.40
2022-08-12T05:15:36.220Z,2.10
2022-08-12T05:16:36.094Z,2.30
2022-08-12T05:17:34.973Z,2.30
2022-08-12T05:18:35.077Z,2.20
2022-08-12T05:19:34.957Z,2.20
2022-08-12T05:20:34.925Z,2.10
2022-08-12T05:21:35.347Z,2.10
2022-08-12T05:22:37.194Z,2.20
2022-08-12T05:23:34.924Z,2.30
2022-08-12T05:24:34.901Z,2.40
2022-08-12T05:25:34.861Z,2.10
2022-08-12T05:26:34.878Z,2.00
2022-08-12T05:27:34.827Z,2.50
2022-08-12T05:28:34.804Z,2.20
2022-08-12T05:30:08.009Z,2.20
2022-08-12T05:30:34.809Z,2.00
2022-08-12T05:31:45.549Z,2.30
2022-08-12T05:32:34.766Z,2.50
2022-08-12T05:33:34.805Z,1.90
2022-08-12T05:34:34.736Z,2.30
2022-08-12T05:35:34.744Z,2.10
2022-08-12T05:36:34.712Z,2.40
2022-08-12T05:37:34.819Z,2.20
2022-08-12T05:38:34.675Z,2.10
2022-08-12T05:39:34.798Z,2.30
2022-08-12T05:40:34.656Z,2.00
2022-08-12T05:41:34.639Z,2.10
2022-08-12T05:42:34.868Z,2.20
2022-08-12T05:43:34.629Z,2.40
2022-08-12T05:44:34.643Z,2.30
2022-08-12T05:45:34.594Z,2.10
2022-08-12T05:46:34.575Z,2.40
2022-08-12T05:47:52.655Z,2.40
2022-08-12T05:48:34.573Z,2.50
2022-08-12T05:49:34.555Z,1.90
2022-08-12T05:50:34.548Z,2.50
2022-08-12T05:51:41.277Z,2.80
2022-08-12T05:52:34.491Z,2.70
2022-08-12T05:53:34.500Z,2.20
2022-08-12T05:54:56.272Z,1.80
2022-08-12T05:55:34.498Z,2.80
2022-08-12T05:56:34.449Z,2.50
2022-08-12T05:57:34.425Z,2.60
2022-08-12T05:58:34.419Z,2.10
2022-08-12T05:59:34.413Z,2.20
2022-08-12T06:00:34.421Z,2.20
2022-08-12T06:02:12.449Z,1.90
2022-08-12T06:02:34.371Z,2.00
2022-08-12T06:03:34.541Z,2.10
2022-08-12T06:04:34.350Z,2.10
2022-08-12T06:05:34.345Z,2.20
2022-08-12T06:06:38.978Z,1.90
2022-08-12T06:08:00.241Z,2.20
2022-08-12T06:08:34.297Z,2.20
2022-08-12T06:09:34.259Z,2.20
2022-08-12T06:10:34.316Z,1.70
2022-08-12T06:11:34.281Z,2.00
2022-08-12T06:12:34.230Z,2.20
2022-08-12T06:13:53.097Z,1.90
2022-08-12T06:14:34.211Z,2.40
2022-08-12T06:15:34.170Z,2.20
2022-08-12T06:16:34.159Z,1.90
2022-08-12T06:17:34.184Z,2.00
2022-08-12T06:18:34.169Z,2.20
2022-08-12T06:20:26.797Z,1.80
2022-08-12T06:20:34.624Z,1.90
2022-08-12T06:21:34.121Z,2.10
2022-08-12T06:22:34.117Z,2.20
2022-08-12T06:23:34.083Z,2.30
2022-08-12T06:24:34.059Z,2.10
2022-08-12T06:25:34.054Z,1.60
2022-08-12T06:26:34.052Z,2.10
2022-08-12T06:27:34.052Z,2.10
2022-08-12T06:28:34.047Z,1.90
2022-08-12T06:30:09.806Z,2.10
2022-08-12T06:30:37.909Z,2.10
2022-08-12T06:31:34.060Z,1.70
2022-08-12T06:32:34.597Z,2.10
2022-08-12T06:34:00.383Z,2.20
2022-08-12T06:35:25.182Z,2.10
2022-08-12T06:35:48.291Z,1.80
2022-08-12T06:36:33.944Z,2.20
2022-08-12T06:37:33.901Z,2.20
2022-08-12T06:38:33.903Z,2.20
2022-08-12T06:39:33.894Z,2.60
2022-08-12T06:40:33.860Z,1.90
2022-08-12T06:41:33.836Z,2.20
2022-08-12T06:42:33.865Z,2.20
2022-08-12T06:44:04.839Z,1.90
2022-08-12T06:44:33.824Z,1.80
2022-08-12T06:45:45.830Z,2.00
2022-08-12T06:46:33.801Z,1.90
2022-08-12T06:47:33.749Z,1.80
2022-08-12T06:48:33.749Z,1.70
2022-08-12T06:49:33.778Z,2.30
2022-08-12T06:50:36.873Z,1.80
2022-08-12T06:51:33.719Z,2.10
2022-08-12T06:52:33.720Z,1.80
2022-08-12T06:53:33.703Z,1.80
2022-08-12T06:54:33.676Z,1.80
2022-08-12T06:55:33.647Z,1.90
2022-08-12T06:57:02.994Z,2.00
2022-08-12T06:57:57.091Z,2.20
2022-08-12T06:58:33.655Z,1.90
2022-08-12T06:59:33.600Z,2.00
2022-08-12T07:00:33.688Z,1.90
2022-08-12T07:01:33.678Z,2.10
2022-08-12T07:02:36.868Z,1.90
2022-08-12T07:03:33.529Z,1.90
2022-08-12T07:04:36.889Z,2.10
2022-08-12T07:05:33.529Z,2.10
2022-08-12T07:06:33.497Z,2.30
2022-08-12T07:07:33.492Z,1.90
2022-08-12T07:08:33.466Z,2.40
2022-08-12T07:10:00.008Z,1.90
2022-08-12T07:10:33.453Z,1.90
2022-08-12T07:11:33.451Z,2.20
2022-08-12T07:12:33.491Z,1.70
2022-08-12T07:13:33.408Z,2.00
2022-08-12T07:14:36.436Z,2.00
2022-08-12T07:15:33.432Z,1.70
2022-08-12T07:16:33.376Z,2.20
2022-08-12T07:17:33.421Z,2.50
2022-08-12T07:18:33.372Z,2.20
2022-08-12T07:19:40.448Z,2.00
2022-08-12T07:20:51.648Z,1.60
2022-08-12T07:21:59.938Z,1.70
2022-08-12T07:22:33.330Z,2.40
2022-08-12T07:23:33.309Z,2.00
2022-08-12T07:24:33.266Z,2.10
2022-08-12T07:25:41.027Z,1.90
2022-08-12T07:26:33.278Z,2.30
2022-08-12T07:27:33.211Z,1.90
2022-08-12T07:28:33.196Z,2.20
2022-08-12T07:29:57.839Z,2.00
2022-08-12T07:30:33.213Z,2.20
2022-08-12T07:31:33.170Z,2.10
2022-08-12T07:32:33.152Z,2.00
2022-08-12T07:33:33.183Z,2.50
2022-08-12T07:34:33.119Z,2.00
2022-08-12T07:35:33.117Z,2.80
2022-08-12T07:36:33.117Z,1.90
2022-08-12T07:37:33.082Z,1.80
2022-08-12T07:38:33.071Z,1.90
2022-08-12T07:39:33.165Z,2.10
2022-08-12T07:40:33.049Z,2.40
2022-08-12T07:41:33.048Z,1.90
2022-08-12T07:42:33.025Z,2.30
2022-08-12T07:43:33.017Z,2.40
2022-08-12T07:44:33.000Z,1.80
2022-08-12T07:45:33.015Z,2.20
2022-08-12T07:46:32.996Z,2.10
2022-08-12T07:47:32.967Z,2.00
2022-08-12T07:48:32.928Z,1.80
2022-08-12T07:49:32.946Z,1.90
2022-08-12T07:50:32.971Z,1.70
2022-08-12T07:51:32.902Z,1.90
2022-08-12T07:52:32.967Z,1.90
2022-08-12T07:53:32.936Z,1.90
2022-08-12T07:54:32.900Z,2.00
2022-08-12T07:55:32.850Z,1.90
2022-08-12T07:56:33.315Z,2.10
2022-08-12T07:57:32.844Z,1.70
2022-08-12T07:58:32.809Z,2.00
2022-08-12T07:59:32.813Z,2.20
2022-08-12T08:00:32.775Z,1.80
2022-08-12T08:01:32.919Z,1.90
2022-08-12T08:02:32.781Z,1.90
2022-08-12T08:03:32.747Z,2.00
2022-08-12T08:04:32.742Z,1.80
2022-08-12T08:05:32.710Z,2.00
2022-08-12T08:06:32.752Z,2.30
2022-08-12T08:07:32.710Z,1.70
2022-08-12T08:08:32.688Z,1.90
2022-08-12T08:09:32.671Z,2.30
2022-08-12T08:10:32.661Z,2.10
2022-08-12T08:11:32.654Z,2.10
2022-08-12T08:12:32.634Z,1.80
2022-08-12T08:13:32.640Z,1.90
2022-08-12T08:14:32.651Z,2.00
2022-08-12T08:16:01.876Z,1.80
2022-08-12T08:16:32.590Z,2.30
2022-08-12T08:17:32.568Z,2.00
2022-08-12T08:18:32.578Z,2.10
2022-08-12T08:19:32.538Z,2.10
2022-08-12T08:20:32.514Z,1.60
2022-08-12T08:21:32.505Z,1.80
2022-08-12T08:22:40.386Z,2.10
2022-08-12T08:23:35.232Z,1.80
2022-08-12T08:24:32.475Z,1.80
2022-08-12T08:25:36.744Z,1.80
2022-08-12T08:26:32.422Z,2.00
2022-08-12T08:27:32.433Z,1.90
2022-08-12T08:28:32.461Z,1.70
2022-08-12T08:29:32.427Z,1.80
2022-08-12T08:30:32.384Z,1.60
2022-08-12T08:31:32.388Z,2.00
2022-08-12T08:32:32.356Z,1.90
2022-08-12T08:34:05.071Z,1.70
2022-08-12T08:34:53.960Z,1.80
2022-08-12T08:35:46.497Z,2.00
2022-08-12T08:36:32.328Z,1.50
2022-08-12T08:37:33.437Z,1.90
2022-08-12T08:38:35.050Z,1.80
2022-08-12T08:39:32.338Z,1.70
2022-08-12T08:40:32.261Z,1.70
2022-08-12T08:42:17.368Z,1.90
2022-08-12T08:42:32.467Z,2.00
2022-08-12T08:43:44.326Z,2.10
2022-08-12T08:44:32.232Z,1.80
2022-08-12T08:45:32.191Z,1.80
2022-08-12T08:46:32.194Z,2.00
2022-08-12T08:47:32.167Z,2.00
2022-08-12T08:48:32.171Z,2.30
2022-08-12T08:49:32.169Z,2.00
2022-08-12T08:50:32.162Z,1.70
2022-08-12T08:51:32.131Z,2.00
2022-08-12T08:52:38.873Z,2.00
2022-08-12T08:53:32.142Z,2.00
2022-08-12T08:54:32.107Z,1.90
2022-08-12T08:56:01.368Z,1.70
2022-08-12T08:56:32.056Z,1.90
2022-08-12T08:57:44.124Z,1.80
2022-08-12T08:58:32.086Z,1.70
2022-08-12T08:59:32.013Z,1.60
2022-08-12T09:00:32.043Z,1.70
2022-08-12T09:01:37.790Z,1.50
2022-08-12T09:02:32.121Z,1.90
2022-08-12T09:05:13.342Z,1.50
2022-08-12T09:05:25.372Z,1.40
2022-08-12T09:06:01.676Z,1.60
2022-08-12T09:28:49.702Z,1.30
2022-08-12T09:28:58.126Z,1.60
2022-08-12T09:30:10.221Z,1.50
2022-08-12T09:30:59.102Z,1.50
2022-08-12T09:32:07.378Z,1.50
2022-08-12T09:33:08.627Z,1.70
2022-08-12T09:34:26.054Z,1.60
2022-08-12T09:34:58.033Z,1.60
2022-08-12T09:36:02.993Z,1.50
2022-08-12T09:37:01.588Z,1.60
2022-08-12T09:38:01.038Z,1.60
2022-08-12T09:38:58.463Z,1.50
2022-08-12T09:40:04.631Z,2.00
2022-08-12T09:42:07.469Z,1.50
2022-08-12T09:42:38.777Z,1.60
2022-08-12T09:44:01.229Z,1.40
2022-08-12T09:45:03.609Z,1.30
2022-08-12T09:46:12.138Z,1.20
2022-08-12T09:46:57.918Z,1.40
2022-08-12T09:47:59.922Z,1.40
2022-08-12T09:48:57.850Z,1.60
2022-08-12T09:49:58.895Z,1.50
2022-08-12T09:51:00.035Z,1.90
2022-08-12T09:51:57.829Z,1.30
2022-08-12T09:53:03.870Z,1.20
2022-08-12T09:54:05.483Z,1.60
2022-08-12T09:55:02.308Z,1.40
2022-08-12T09:56:56.705Z,1.80
2022-08-12T09:58:46.494Z,1.70
2022-08-12T09:59:03.825Z,1.60
2022-08-12T09:59:08.696Z,1.40
2022-08-12T10:00:13.255Z,1.30
2022-08-12T10:01:14.970Z,1.40
2022-08-12T10:02:41.927Z,1.50
2022-08-12T10:03:08.690Z,1.30
2022-08-12T10:04:08.738Z,1.30
2022-08-12T10:05:09.371Z,1.50
2022-08-12T10:06:19.191Z,1.20
2022-08-12T10:07:22.497Z,1.10
2022-08-12T10:08:08.588Z,1.50
2022-08-12T10:09:08.697Z,1.50
2022-08-12T10:10:08.527Z,1.30
2022-08-12T10:11:08.542Z,1.30
2022-08-12T10:12:11.997Z,1.40
2022-08-12T10:13:10.116Z,1.50
2022-08-12T10:14:13.502Z,1.20
2022-08-12T10:15:08.477Z,1.90
2022-08-12T10:16:22.112Z,1.60
2022-08-12T10:17:09.279Z,1.50
2022-08-12T10:18:08.438Z,1.70
2022-08-12T10:19:17.085Z,1.30
2022-08-12T10:20:09.966Z,1.40
2022-08-12T10:21:08.413Z,1.40
2022-08-12T10:22:16.938Z,1.20
2022-08-12T10:23:08.373Z,1.30
2022-08-12T10:24:08.419Z,1.50
2022-08-12T10:25:17.197Z,1.20
2022-08-12T10:26:37.030Z,1.20
2022-08-12T10:27:08.345Z,1.10
2022-08-12T10:28:13.791Z,1.50
2022-08-12T10:30:01.703Z,1.40
2022-08-12T10:30:44.108Z,1.30
2022-08-12T10:31:16.298Z,1.20
2022-08-12T10:32:20.728Z,1.60
2022-08-12T10:33:18.669Z,1.40
2022-08-12T10:34:14.956Z,1.20
2022-08-12T10:35:08.229Z,1.30
2022-08-12T10:36:08.193Z,2.10
2022-08-12T10:37:10.700Z,1.20
2022-08-12T10:38:39.226Z,1.60
2022-08-12T10:40:00.759Z,1.30
2022-08-12T10:40:12.580Z,1.30
2022-08-12T10:41:08.198Z,1.10
2022-08-12T10:42:08.195Z,1.60
2022-08-12T10:43:08.182Z,1.20
2022-08-12T10:44:08.094Z,1.20
2022-08-12T10:45:08.089Z,1.10
2022-08-12T10:46:12.183Z,1.30
2022-08-12T10:47:26.465Z,1.30
2022-08-12T10:48:21.905Z,1.50
2022-08-12T10:50:03.521Z,1.30
2022-08-12T10:50:58.435Z,1.30
2022-08-12T10:52:02.730Z,1.20
2022-08-12T10:52:34.758Z,1.40
2022-08-12T10:53:09.311Z,1.20
2022-08-12T10:54:08.001Z,1.60
2022-08-12T10:55:13.482Z,1.50
2022-08-12T10:56:07.943Z,1.40
2022-08-12T10:57:07.916Z,1.50
2022-08-12T10:58:14.539Z,1.50
2022-08-12T10:59:11.111Z,1.30
2022-08-12T11:00:30.649Z,1.20
2022-08-12T11:01:49.540Z,1.50
2022-08-12T11:04:45.272Z,1.30
2022-08-12T11:04:54.510Z,1.30
2022-08-12T11:07:03.760Z,1.30
2022-08-12T11:08:42.234Z,1.40
2022-08-12T11:08:48.436Z,1.30
2022-08-12T11:09:56.198Z,1.70
2022-08-12T11:10:47.462Z,1.30
2022-08-12T11:12:34.793Z,1.40
2022-08-12T11:13:00.558Z,1.50
2022-08-12T11:13:48.919Z,1.40
2022-08-12T11:14:50.631Z,1.50
2022-08-12T11:16:03.883Z,1.60
2022-08-12T11:16:47.532Z,1.30
2022-08-12T11:17:53.641Z,1.50
2022-08-12T11:18:47.345Z,1.40
2022-08-12T11:19:47.359Z,1.50
2022-08-12T11:20:47.318Z,1.60
2022-08-12T11:21:58.009Z,1.30
2022-08-12T11:22:58.139Z,1.20
2022-08-12T11:23:53.318Z,1.20
2022-08-12T11:24:51.556Z,1.10
2022-08-12T11:25:58.283Z,1.20
2022-08-12T11:26:47.307Z,1.10
2022-08-12T11:27:47.229Z,1.30
2022-08-12T11:28:59.088Z,1.30
2022-08-12T11:30:03.785Z,1.50
2022-08-12T11:30:47.252Z,1.20
2022-08-12T11:32:01.782Z,1.10
2022-08-12T11:32:47.280Z,1.30
2022-08-12T11:34:04.820Z,1.30
2022-08-12T11:34:53.365Z,1.20
2022-08-12T11:35:47.134Z,1.30
2022-08-12T11:36:47.114Z,1.30
2022-08-12T11:37:59.109Z,1.20
2022-08-12T11:38:50.306Z,1.40
2022-08-12T11:40:47.154Z,1.20
2022-08-12T11:41:47.062Z,1.10
2022-08-12T11:42:47.336Z,1.60
2022-08-12T11:43:50.183Z,1.40
2022-08-12T11:44:46.995Z,1.30
2022-08-12T11:45:47.433Z,1.40
2022-08-12T11:46:47.000Z,1.60
2022-08-12T11:47:46.948Z,1.50
2022-08-12T11:48:51.512Z,1.40
2022-08-12T11:49:51.948Z,1.30
2022-08-12T11:50:46.937Z,1.60
2022-08-12T11:51:57.900Z,1.60
2022-08-12T11:52:56.432Z,1.80
2022-08-12T11:53:57.263Z,1.40
2022-08-12T11:54:51.091Z,1.30
2022-08-12T11:55:47.066Z,1.80
2022-08-12T11:56:52.361Z,1.70
2022-08-12T11:58:44.108Z,1.40
2022-08-12T12:02:02.529Z,1.30
2022-08-12T12:02:38.234Z,1.30
2022-08-12T12:03:46.309Z,1.30
2022-08-12T12:04:38.159Z,1.40
2022-08-12T12:05:41.604Z,1.60
2022-08-12T12:06:38.153Z,1.20
2022-08-12T12:08:38.696Z,1.20
2022-08-12T12:08:51.049Z,1.50
2022-08-12T12:09:52.702Z,1.30
2022-08-12T12:10:38.093Z,1.30
2022-08-12T12:11:48.923Z,1.40
2022-08-12T12:12:38.073Z,1.30
2022-08-12T12:14:08.298Z,1.40
2022-08-12T12:14:39.223Z,1.10
2022-08-12T12:15:41.202Z,1.20
2022-08-12T12:16:39.991Z,2.30
2022-08-12T12:17:38.633Z,1.40
2022-08-12T12:18:37.976Z,1.30
2022-08-12T12:19:45.254Z,1.40
2022-08-12T12:20:37.948Z,1.10
2022-08-12T12:21:48.740Z,1.30
2022-08-12T12:22:37.943Z,1.50
2022-08-12T12:23:37.954Z,1.20
2022-08-12T12:24:37.894Z,1.30
2022-08-12T12:26:07.011Z,1.30
2022-08-12T12:26:38.526Z,1.10
2022-08-12T12:28:05.162Z,1.20
2022-08-12T12:28:39.468Z,1.50
2022-08-12T12:30:17.688Z,1.30
2022-08-12T12:30:37.823Z,1.20
2022-08-12T12:32:09.414Z,1.40
2022-08-12T12:32:37.813Z,1.30
2022-08-12T12:33:57.281Z,1.30
2022-08-12T12:34:37.776Z,1.40
2022-08-12T12:36:20.011Z,1.30
2022-08-12T12:36:37.787Z,1.20
2022-08-12T12:38:03.615Z,1.20
2022-08-12T12:38:37.713Z,1.30
2022-08-12T12:39:54.666Z,1.40
2022-08-12T12:40:39.785Z,1.10
2022-08-12T12:42:42.785Z,1.30
2022-08-12T12:42:55.609Z,2.00
2022-08-12T12:43:43.577Z,1.30
2022-08-12T12:44:41.870Z,1.50
2022-08-12T12:45:37.646Z,1.20
2022-08-12T12:46:37.632Z,1.70
2022-08-12T12:47:37.591Z,1.20
2022-08-12T12:48:41.400Z,1.60
2022-08-12T12:49:37.594Z,1.30
2022-08-12T12:50:45.497Z,1.30
2022-08-12T12:52:01.993Z,1.30
2022-08-12T12:52:37.631Z,1.20
2022-08-12T12:54:07.452Z,1.30
2022-08-12T12:54:37.508Z,1.30
2022-08-12T12:55:37.504Z,1.30
2022-08-12T12:56:37.482Z,1.50
2022-08-12T12:58:00.545Z,1.40
2022-08-12T12:58:37.481Z,1.60
2022-08-12T12:59:56.280Z,1.50
2022-08-12T13:00:37.450Z,1.50
2022-08-12T13:01:41.816Z,1.70
2022-08-12T13:02:37.407Z,1.20
2022-08-12T13:03:49.305Z,1.40
2022-08-12T13:04:37.868Z,1.10
2022-08-12T13:05:42.572Z,1.40
2022-08-12T13:06:37.367Z,1.30
2022-08-12T13:07:54.115Z,1.20
2022-08-12T13:08:37.349Z,1.10
2022-08-12T13:09:37.337Z,1.20
2022-08-12T13:10:37.382Z,1.00
2022-08-12T13:11:41.535Z,1.30
2022-08-12T13:12:37.520Z,1.20
2022-08-12T13:14:06.850Z,1.40
2022-08-12T13:14:39.861Z,1.40
2022-08-12T13:15:43.105Z,1.30
2022-08-12T13:16:37.244Z,1.20
2022-08-12T13:18:02.607Z,1.40
2022-08-12T13:18:37.204Z,1.50
2022-08-12T13:19:45.162Z,1.60
2022-08-12T13:20:43.126Z,1.20
2022-08-12T13:21:43.039Z,1.20
2022-08-12T13:22:37.202Z,1.20
2022-08-12T13:23:37.760Z,1.50
2022-08-12T13:24:37.137Z,1.30
2022-08-12T13:25:37.117Z,1.40
2022-08-12T13:26:37.524Z,1.20
2022-08-12T13:27:37.144Z,1.30
2022-08-12T13:28:37.087Z,1.40
2022-08-12T13:29:37.071Z,1.20
2022-08-12T13:30:37.041Z,1.10
2022-08-12T13:31:46.330Z,1.40
2022-08-12T13:32:37.023Z,1.30
2022-08-12T13:34:29.627Z,1.40
2022-08-12T13:34:39.578Z,1.40
2022-08-12T13:36:06.446Z,1.80
2022-08-12T13:36:36.968Z,1.40
2022-08-12T13:37:44.002Z,1.10
2022-08-12T13:38:36.976Z,1.30
2022-08-12T13:39:36.979Z,1.20
2022-08-12T13:40:36.922Z,1.20
2022-08-12T13:41:36.915Z,1.20
2022-08-12T13:42:36.895Z,1.30
2022-08-12T13:43:40.206Z,1.30
2022-08-12T13:44:36.872Z,1.40
2022-08-12T13:45:37.026Z,1.50
2022-08-12T13:46:36.860Z,1.20
2022-08-12T13:47:38.694Z,1.40